sensor_id;sensor_type;location;lat;lon;timestamp;pressure;altitude;pressure_sealevel;temperature;humidity
74790;BME280;63318;52.406;13.416;2023-08-21T00:01:40;101792.40;;;21.20;72.24
74790;BME280;63318;52.406;13.416;2023-08-21T00:04:08;101790.41;;;21.16;72.39
74790;BME280;63318;52.406;13.416;2023-08-21T00:06:36;101788.52;;;21.13;72.57
74790;BME280;63318;52.406;13.416;2023-08-21T00:09:05;101784.09;;;21.09;72.49
74790;BME280;63318;52.406;13.416;2023-08-21T00:11:33;101782.64;;;21.05;72.86
74790;BME280;63318;52.406;13.416;2023-08-21T00:14:01;101786.83;;;21.02;72.92
74790;BME280;63318;52.406;13.416;2023-08-21T00:16:29;101784.22;;;20.97;73.09
74790;BME280;63318;52.406;13.416;2023-08-21T00:18:57;101782.00;;;20.94;73.08
74790;BME280;63318;52.406;13.416;2023-08-21T00:21:26;101781.42;;;20.89;73.49
74790;BME280;63318;52.406;13.416;2023-08-21T00:23:55;101783.95;;;20.85;73.42
74790;BME280;63318;52.406;13.416;2023-08-21T00:26:23;101783.51;;;20.82;73.61
74790;BME280;63318;52.406;13.416;2023-08-21T00:28:51;101780.25;;;20.78;73.71
74790;BME280;63318;52.406;13.416;2023-08-21T00:31:19;101783.16;;;20.75;73.87
74790;BME280;63318;52.406;13.416;2023-08-21T00:33:48;101783.91;;;20.72;74.09
74790;BME280;63318;52.406;13.416;2023-08-21T00:36:16;101785.23;;;20.68;74.23
74790;BME280;63318;52.406;13.416;2023-08-21T00:38:44;101783.34;;;20.65;74.31
74790;BME280;63318;52.406;13.416;2023-08-21T00:41:13;101780.42;;;20.61;74.25
74790;BME280;63318;52.406;13.416;2023-08-21T00:43:41;101781.33;;;20.59;74.25
74790;BME280;63318;52.406;13.416;2023-08-21T00:46:09;101780.56;;;20.57;74.10
74790;BME280;63318;52.406;13.416;2023-08-21T00:48:38;101780.02;;;20.54;74.67
74790;BME280;63318;52.406;13.416;2023-08-21T00:51:07;101779.13;;;20.53;74.90
74790;BME280;63318;52.406;13.416;2023-08-21T00:53:35;101779.57;;;20.51;74.94
74790;BME280;63318;52.406;13.416;2023-08-21T00:56:04;101778.79;;;20.49;75.01
74790;BME280;63318;52.406;13.416;2023-08-21T00:58:32;101779.51;;;20.46;75.27
74790;BME280;63318;52.406;13.416;2023-08-21T01:01:00;101777.84;;;20.43;75.23
74790;BME280;63318;52.406;13.416;2023-08-21T01:03:29;101780.91;;;20.41;75.36
74790;BME280;63318;52.406;13.416;2023-08-21T01:05:57;101786.23;;;20.38;75.16
74790;BME280;63318;52.406;13.416;2023-08-21T01:08:30;101788.22;;;20.35;75.47
74790;BME280;63318;52.406;13.416;2023-08-21T01:11:06;101791.27;;;20.32;75.54
74790;BME280;63318;52.406;13.416;2023-08-21T01:13:47;101789.31;;;20.29;75.63
74790;BME280;63318;52.406;13.416;2023-08-21T01:16:17;101787.35;;;20.26;75.78
74790;BME280;63318;52.406;13.416;2023-08-21T01:18:46;101787.58;;;20.23;75.77
74790;BME280;63318;52.406;13.416;2023-08-21T01:21:16;101787.58;;;20.21;75.84
74790;BME280;63318;52.406;13.416;2023-08-21T01:23:44;101783.91;;;20.19;75.92
74790;BME280;63318;52.406;13.416;2023-08-21T01:26:13;101782.98;;;20.17;76.11
74790;BME280;63318;52.406;13.416;2023-08-21T01:28:41;101785.66;;;20.16;76.09
74790;BME280;63318;52.406;13.416;2023-08-21T01:31:19;101784.88;;;20.15;76.17
74790;BME280;63318;52.406;13.416;2023-08-21T01:33:53;101783.04;;;20.14;76.30
74790;BME280;63318;52.406;13.416;2023-08-21T01:36:22;101776.17;;;20.13;76.42
74790;BME280;63318;52.406;13.416;2023-08-21T01:38:51;101773.14;;;20.13;76.42
74790;BME280;63318;52.406;13.416;2023-08-21T01:41:20;101768.80;;;20.13;76.34
74790;BME280;63318;52.406;13.416;2023-08-21T01:43:51;101771.39;;;20.13;76.44
74790;BME280;63318;52.406;13.416;2023-08-21T01:46:19;101769.11;;;20.14;76.70
74790;BME280;63318;52.406;13.416;2023-08-21T01:48:47;101770.41;;;20.14;76.68
74790;BME280;63318;52.406;13.416;2023-08-21T01:51:16;101767.46;;;20.14;76.69
74790;BME280;63318;52.406;13.416;2023-08-21T01:53:44;101768.29;;;20.15;76.54
74790;BME280;63318;52.406;13.416;2023-08-21T01:56:12;101772.16;;;20.16;77.01
74790;BME280;63318;52.406;13.416;2023-08-21T01:58:40;101774.35;;;20.17;77.14
74790;BME280;63318;52.406;13.416;2023-08-21T02:01:09;101772.46;;;20.18;77.01
74790;BME280;63318;52.406;13.416;2023-08-21T02:03:37;101768.86;;;20.18;77.08
74790;BME280;63318;52.406;13.416;2023-08-21T02:06:05;101764.78;;;20.18;77.26
74790;BME280;63318;52.406;13.416;2023-08-21T02:08:33;101768.22;;;20.19;76.96
74790;BME280;63318;52.406;13.416;2023-08-21T02:11:02;101765.83;;;20.19;77.03
74790;BME280;63318;52.406;13.416;2023-08-21T02:13:30;101762.88;;;20.20;76.83
74790;BME280;63318;52.406;13.416;2023-08-21T02:15:58;101761.21;;;20.21;77.08
74790;BME280;63318;52.406;13.416;2023-08-21T02:18:26;101757.39;;;20.21;77.22
74790;BME280;63318;52.406;13.416;2023-08-21T02:20:55;101760.83;;;20.22;77.11
74790;BME280;63318;52.406;13.416;2023-08-21T02:23:23;101763.20;;;20.22;77.10
74790;BME280;63318;52.406;13.416;2023-08-21T02:25:51;101762.19;;;20.23;77.03
74790;BME280;63318;52.406;13.416;2023-08-21T02:28:19;101759.40;;;20.23;77.22
74790;BME280;63318;52.406;13.416;2023-08-21T02:30:47;101758.58;;;20.25;77.23
74790;BME280;63318;52.406;13.416;2023-08-21T02:33:16;101760.33;;;20.24;77.33
74790;BME280;63318;52.406;13.416;2023-08-21T02:35:44;101764.79;;;20.25;77.44
74790;BME280;63318;52.406;13.416;2023-08-21T02:38:12;101761.74;;;20.25;77.25
74790;BME280;63318;52.406;13.416;2023-08-21T02:40:40;101760.02;;;20.26;77.36
74790;BME280;63318;52.406;13.416;2023-08-21T02:43:08;101761.95;;;20.26;77.28
74790;BME280;63318;52.406;13.416;2023-08-21T02:45:36;101757.54;;;20.26;77.46
74790;BME280;63318;52.406;13.416;2023-08-21T02:48:05;101756.39;;;20.27;77.42
74790;BME280;63318;52.406;13.416;2023-08-21T02:50:33;101757.05;;;20.28;77.47
74790;BME280;63318;52.406;13.416;2023-08-21T02:53:02;101754.27;;;20.28;77.43
74790;BME280;63318;52.406;13.416;2023-08-21T02:55:30;101752.38;;;20.29;77.56
74790;BME280;63318;52.406;13.416;2023-08-21T02:57:58;101751.53;;;20.29;77.67
74790;BME280;63318;52.406;13.416;2023-08-21T03:00:27;101755.86;;;20.30;77.73
74790;BME280;63318;52.406;13.416;2023-08-21T03:02:55;101753.41;;;20.31;77.92
74790;BME280;63318;52.406;13.416;2023-08-21T03:05:23;101752.95;;;20.32;77.84
74790;BME280;63318;52.406;13.416;2023-08-21T03:07:51;101756.59;;;20.33;78.05
74790;BME280;63318;52.406;13.416;2023-08-21T03:10:20;101754.77;;;20.34;77.90
74790;BME280;63318;52.406;13.416;2023-08-21T03:12:48;101753.98;;;20.34;78.19
74790;BME280;63318;52.406;13.416;2023-08-21T03:15:16;101754.25;;;20.34;78.20
74790;BME280;63318;52.406;13.416;2023-08-21T03:17:44;101753.70;;;20.35;78.21
74790;BME280;63318;52.406;13.416;2023-08-21T03:20:13;101756.67;;;20.35;78.36
74790;BME280;63318;52.406;13.416;2023-08-21T03:22:42;101761.89;;;20.36;78.41
74790;BME280;63318;52.406;13.416;2023-08-21T03:25:10;101755.29;;;20.36;78.22
74790;BME280;63318;52.406;13.416;2023-08-21T03:27:39;101754.89;;;20.36;78.51
74790;BME280;63318;52.406;13.416;2023-08-21T03:30:08;101754.27;;;20.36;78.52
74790;BME280;63318;52.406;13.416;2023-08-21T03:32:36;101755.27;;;20.37;78.54
74790;BME280;63318;52.406;13.416;2023-08-21T03:35:05;101754.32;;;20.37;78.56
74790;BME280;63318;52.406;13.416;2023-08-21T03:37:34;101752.55;;;20.37;78.79
74790;BME280;63318;52.406;13.416;2023-08-21T03:40:03;101753.45;;;20.38;78.84
74790;BME280;63318;52.406;13.416;2023-08-21T03:42:32;101752.60;;;20.38;78.83
74790;BME280;63318;52.406;13.416;2023-08-21T03:45:00;101753.54;;;20.38;78.81
74790;BME280;63318;52.406;13.416;2023-08-21T03:47:28;101750.77;;;20.39;78.81
74790;BME280;63318;52.406;13.416;2023-08-21T03:49:57;101754.66;;;20.39;78.84
74790;BME280;63318;52.406;13.416;2023-08-21T03:52:25;101754.84;;;20.39;79.09
74790;BME280;63318;52.406;13.416;2023-08-21T03:54:53;101758.45;;;20.39;78.96
74790;BME280;63318;52.406;13.416;2023-08-21T03:57:21;101763.86;;;20.39;79.13
74790;BME280;63318;52.406;13.416;2023-08-21T03:59:49;101764.50;;;20.39;79.09
74790;BME280;63318;52.406;13.416;2023-08-21T04:02:17;101764.83;;;20.39;79.08
74790;BME280;63318;52.406;13.416;2023-08-21T04:04:46;101765.73;;;20.39;78.94
74790;BME280;63318;52.406;13.416;2023-08-21T04:07:15;101772.09;;;20.39;79.09
74790;BME280;63318;52.406;13.416;2023-08-21T04:09:43;101773.05;;;20.39;79.16
74790;BME280;63318;52.406;13.416;2023-08-21T04:12:11;101774.19;;;20.39;79.08
74790;BME280;63318;52.406;13.416;2023-08-21T04:14:39;101777.77;;;20.40;79.25
74790;BME280;63318;52.406;13.416;2023-08-21T04:17:07;101781.16;;;20.40;79.04
74790;BME280;63318;52.406;13.416;2023-08-21T04:19:36;101782.23;;;20.40;79.25
74790;BME280;63318;52.406;13.416;2023-08-21T04:22:04;101777.82;;;20.41;79.01
74790;BME280;63318;52.406;13.416;2023-08-21T04:24:32;101781.83;;;20.41;79.02
74790;BME280;63318;52.406;13.416;2023-08-21T04:27:00;101786.61;;;20.42;79.25
74790;BME280;63318;52.406;13.416;2023-08-21T04:29:29;101789.41;;;20.43;79.18
74790;BME280;63318;52.406;13.416;2023-08-21T04:31:57;101787.09;;;20.43;79.01
74790;BME280;63318;52.406;13.416;2023-08-21T04:34:25;101788.70;;;20.44;79.01
74790;BME280;63318;52.406;13.416;2023-08-21T04:36:53;101789.42;;;20.45;79.10
74790;BME280;63318;52.406;13.416;2023-08-21T04:39:21;101788.35;;;20.47;79.28
74790;BME280;63318;52.406;13.416;2023-08-21T04:41:49;101793.94;;;20.48;79.33
74790;BME280;63318;52.406;13.416;2023-08-21T04:44:18;101791.23;;;20.49;79.16
74790;BME280;63318;52.406;13.416;2023-08-21T04:46:49;101794.48;;;20.51;79.02
74790;BME280;63318;52.406;13.416;2023-08-21T04:49:17;101797.84;;;20.53;79.18
74790;BME280;63318;52.406;13.416;2023-08-21T04:51:46;101805.70;;;20.54;79.08
74790;BME280;63318;52.406;13.416;2023-08-21T04:54:14;101809.45;;;20.56;79.03
74790;BME280;63318;52.406;13.416;2023-08-21T04:56:42;101808.98;;;20.57;78.98
74790;BME280;63318;52.406;13.416;2023-08-21T04:59:10;101804.02;;;20.59;79.03
74790;BME280;63318;52.406;13.416;2023-08-21T05:01:38;101808.02;;;20.62;79.00
74790;BME280;63318;52.406;13.416;2023-08-21T05:04:06;101806.57;;;20.64;79.04
74790;BME280;63318;52.406;13.416;2023-08-21T05:06:35;101805.27;;;20.67;78.88
74790;BME280;63318;52.406;13.416;2023-08-21T05:09:03;101811.91;;;20.70;79.03
74790;BME280;63318;52.406;13.416;2023-08-21T05:11:31;101811.05;;;20.73;78.98
74790;BME280;63318;52.406;13.416;2023-08-21T05:13:59;101815.02;;;20.78;78.92
74790;BME280;63318;52.406;13.416;2023-08-21T05:16:27;101818.73;;;20.81;78.86
74790;BME280;63318;52.406;13.416;2023-08-21T05:18:56;101812.05;;;20.84;78.79
74790;BME280;63318;52.406;13.416;2023-08-21T05:21:24;101808.23;;;20.86;78.57
74790;BME280;63318;52.406;13.416;2023-08-21T05:23:52;101810.43;;;20.88;78.52
74790;BME280;63318;52.406;13.416;2023-08-21T05:26:21;101812.59;;;20.91;78.61
74790;BME280;63318;52.406;13.416;2023-08-21T05:28:49;101813.98;;;20.94;78.55
74790;BME280;63318;52.406;13.416;2023-08-21T05:31:17;101815.23;;;20.97;78.57
74790;BME280;63318;52.406;13.416;2023-08-21T05:33:45;101818.40;;;21.03;78.42
74790;BME280;63318;52.406;13.416;2023-08-21T05:36:14;101813.21;;;21.08;78.41
74790;BME280;63318;52.406;13.416;2023-08-21T05:38:42;101811.77;;;21.14;78.30
74790;BME280;63318;52.406;13.416;2023-08-21T05:41:10;101812.88;;;21.20;78.09
74790;BME280;63318;52.406;13.416;2023-08-21T05:43:38;101817.16;;;21.25;78.20
74790;BME280;63318;52.406;13.416;2023-08-21T05:46:08;101817.36;;;21.30;78.06
74790;BME280;63318;52.406;13.416;2023-08-21T05:48:36;101824.30;;;21.34;77.92
74790;BME280;63318;52.406;13.416;2023-08-21T05:51:04;101821.45;;;21.39;78.02
74790;BME280;63318;52.406;13.416;2023-08-21T05:53:32;101821.01;;;21.45;77.71
74790;BME280;63318;52.406;13.416;2023-08-21T05:56:01;101825.37;;;21.54;77.73
74790;BME280;63318;52.406;13.416;2023-08-21T05:58:29;101827.70;;;21.64;77.55
74790;BME280;63318;52.406;13.416;2023-08-21T06:00:57;101829.21;;;21.76;77.32
74790;BME280;63318;52.406;13.416;2023-08-21T06:03:25;101827.73;;;21.83;77.06
74790;BME280;63318;52.406;13.416;2023-08-21T06:05:53;101827.45;;;21.89;77.12
74790;BME280;63318;52.406;13.416;2023-08-21T06:08:22;101825.44;;;21.95;76.94
74790;BME280;63318;52.406;13.416;2023-08-21T06:10:53;101821.15;;;22.03;76.71
74790;BME280;63318;52.406;13.416;2023-08-21T06:13:21;101815.30;;;22.12;76.68
74790;BME280;63318;52.406;13.416;2023-08-21T06:15:49;101812.39;;;22.21;76.50
74790;BME280;63318;52.406;13.416;2023-08-21T06:18:18;101808.12;;;22.29;76.40
74790;BME280;63318;52.406;13.416;2023-08-21T06:20:46;101814.27;;;22.40;76.03
74790;BME280;63318;52.406;13.416;2023-08-21T06:23:14;101808.66;;;22.54;75.94
74790;BME280;63318;52.406;13.416;2023-08-21T06:25:43;101810.96;;;22.75;75.71
74790;BME280;63318;52.406;13.416;2023-08-21T06:28:11;101815.57;;;23.00;75.53
74790;BME280;63318;52.406;13.416;2023-08-21T06:30:39;101819.93;;;23.18;74.49
74790;BME280;63318;52.406;13.416;2023-08-21T06:33:08;101824.06;;;23.28;74.07
74790;BME280;63318;52.406;13.416;2023-08-21T06:35:39;101829.63;;;23.38;73.79
74790;BME280;63318;52.406;13.416;2023-08-21T06:38:07;101831.44;;;23.46;73.38
74790;BME280;63318;52.406;13.416;2023-08-21T06:40:35;101829.32;;;23.55;72.93
74790;BME280;63318;52.406;13.416;2023-08-21T06:43:03;101835.33;;;23.64;72.91
74790;BME280;63318;52.406;13.416;2023-08-21T06:45:32;101838.83;;;23.71;72.69
74790;BME280;63318;52.406;13.416;2023-08-21T06:48:00;101839.77;;;23.86;72.78
74790;BME280;63318;52.406;13.416;2023-08-21T06:50:28;101836.14;;;23.98;72.29
74790;BME280;63318;52.406;13.416;2023-08-21T06:52:56;101838.58;;;24.08;72.75
74790;BME280;63318;52.406;13.416;2023-08-21T06:55:24;101839.83;;;24.14;72.40
74790;BME280;63318;52.406;13.416;2023-08-21T06:57:53;101839.41;;;24.20;72.32
74790;BME280;63318;52.406;13.416;2023-08-21T07:00:21;101845.93;;;24.26;72.12
74790;BME280;63318;52.406;13.416;2023-08-21T07:02:49;101838.07;;;24.36;72.08
74790;BME280;63318;52.406;13.416;2023-08-21T07:05:17;101839.98;;;24.42;71.81
74790;BME280;63318;52.406;13.416;2023-08-21T07:07:46;101839.09;;;24.48;71.65
74790;BME280;63318;52.406;13.416;2023-08-21T07:10:14;101838.34;;;24.57;71.57
74790;BME280;63318;52.406;13.416;2023-08-21T07:12:42;101841.20;;;24.73;70.96
74790;BME280;63318;52.406;13.416;2023-08-21T07:15:11;101838.25;;;24.95;70.79
74790;BME280;63318;52.406;13.416;2023-08-21T07:17:39;101833.75;;;25.25;69.79
74790;BME280;63318;52.406;13.416;2023-08-21T07:20:09;101834.84;;;25.56;68.73
74790;BME280;63318;52.406;13.416;2023-08-21T07:22:37;101838.23;;;25.88;67.46
74790;BME280;63318;52.406;13.416;2023-08-21T07:25:07;101834.77;;;26.15;66.85
74790;BME280;63318;52.406;13.416;2023-08-21T07:27:36;101834.87;;;26.32;66.28
74790;BME280;63318;52.406;13.416;2023-08-21T07:30:05;101835.71;;;26.40;65.39
74790;BME280;63318;52.406;13.416;2023-08-21T07:32:34;101842.20;;;26.50;65.58
74790;BME280;63318;52.406;13.416;2023-08-21T07:35:02;101841.40;;;26.56;64.28
74790;BME280;63318;52.406;13.416;2023-08-21T07:37:30;101842.10;;;26.59;64.60
74790;BME280;63318;52.406;13.416;2023-08-21T07:39:59;101842.54;;;26.60;64.23
74790;BME280;63318;52.406;13.416;2023-08-21T07:42:27;101844.73;;;26.65;63.53
74790;BME280;63318;52.406;13.416;2023-08-21T07:44:55;101846.42;;;26.66;63.50
74790;BME280;63318;52.406;13.416;2023-08-21T07:47:24;101847.17;;;26.65;63.46
74790;BME280;63318;52.406;13.416;2023-08-21T07:49:54;101850.80;;;26.63;63.03
74790;BME280;63318;52.406;13.416;2023-08-21T07:52:23;101852.70;;;26.62;63.70
74790;BME280;63318;52.406;13.416;2023-08-21T07:54:53;101855.35;;;26.61;62.94
74790;BME280;63318;52.406;13.416;2023-08-21T07:57:22;101856.00;;;26.63;63.25
74790;BME280;63318;52.406;13.416;2023-08-21T07:59:50;101855.46;;;26.76;62.87
74790;BME280;63318;52.406;13.416;2023-08-21T08:02:18;101854.23;;;26.84;62.81
74790;BME280;63318;52.406;13.416;2023-08-21T08:04:46;101856.86;;;26.88;62.28
74790;BME280;63318;52.406;13.416;2023-08-21T08:07:15;101860.66;;;26.92;62.12
74790;BME280;63318;52.406;13.416;2023-08-21T08:09:43;101859.13;;;26.98;62.20
74790;BME280;63318;52.406;13.416;2023-08-21T08:12:11;101853.85;;;27.05;62.01
74790;BME280;63318;52.406;13.416;2023-08-21T08:14:39;101854.00;;;27.15;60.99
74790;BME280;63318;52.406;13.416;2023-08-21T08:17:07;101855.88;;;27.26;60.85
74790;BME280;63318;52.406;13.416;2023-08-21T08:19:36;101858.71;;;27.33;60.72
74790;BME280;63318;52.406;13.416;2023-08-21T08:22:04;101860.23;;;27.34;60.07
74790;BME280;63318;52.406;13.416;2023-08-21T08:24:32;101862.59;;;27.34;59.33
74790;BME280;63318;52.406;13.416;2023-08-21T08:27:00;101862.38;;;27.35;58.93
74790;BME280;63318;52.406;13.416;2023-08-21T08:29:29;101860.35;;;27.35;58.26
74790;BME280;63318;52.406;13.416;2023-08-21T08:31:57;101863.57;;;27.36;57.98
74790;BME280;63318;52.406;13.416;2023-08-21T08:34:25;101862.11;;;27.38;57.30
74790;BME280;63318;52.406;13.416;2023-08-21T08:36:53;101860.88;;;27.46;57.06
74790;BME280;63318;52.406;13.416;2023-08-21T08:39:22;101864.23;;;27.49;56.66
74790;BME280;63318;52.406;13.416;2023-08-21T08:41:56;101867.55;;;27.46;55.99
74790;BME280;63318;52.406;13.416;2023-08-21T08:44:26;101869.23;;;27.42;56.01
74790;BME280;63318;52.406;13.416;2023-08-21T08:46:55;101871.15;;;27.41;56.28
74790;BME280;63318;52.406;13.416;2023-08-21T08:49:24;101873.33;;;27.40;55.18
74790;BME280;63318;52.406;13.416;2023-08-21T08:51:53;101872.63;;;27.41;55.47
74790;BME280;63318;52.406;13.416;2023-08-21T08:54:23;101872.27;;;27.43;54.20
74790;BME280;63318;52.406;13.416;2023-08-21T08:56:51;101875.87;;;27.43;53.35
74790;BME280;63318;52.406;13.416;2023-08-21T08:59:20;101874.63;;;27.45;53.76
74790;BME280;63318;52.406;13.416;2023-08-21T09:01:48;101871.91;;;27.49;53.69
74790;BME280;63318;52.406;13.416;2023-08-21T09:04:16;101875.20;;;27.56;53.40
74790;BME280;63318;52.406;13.416;2023-08-21T09:06:45;101873.14;;;27.69;53.39
74790;BME280;63318;52.406;13.416;2023-08-21T09:09:13;101874.48;;;27.86;53.38
74790;BME280;63318;52.406;13.416;2023-08-21T09:11:46;101875.91;;;27.91;52.54
74790;BME280;63318;52.406;13.416;2023-08-21T09:14:15;101873.83;;;28.08;51.92
74790;BME280;63318;52.406;13.416;2023-08-21T09:17:00;101872.43;;;28.34;51.95
74790;BME280;63318;52.406;13.416;2023-08-21T09:19:29;101869.14;;;28.67;50.72
74790;BME280;63318;52.406;13.416;2023-08-21T09:21:57;101860.09;;;28.93;50.22
74790;BME280;63318;52.406;13.416;2023-08-21T09:24:25;101858.91;;;29.18;49.87
74790;BME280;63318;52.406;13.416;2023-08-21T09:26:53;101858.94;;;29.36;49.62
74790;BME280;63318;52.406;13.416;2023-08-21T09:29:22;101852.13;;;29.42;48.40
74790;BME280;63318;52.406;13.416;2023-08-21T09:31:50;101855.55;;;29.46;49.26
74790;BME280;63318;52.406;13.416;2023-08-21T09:34:20;101856.54;;;29.49;47.79
74790;BME280;63318;52.406;13.416;2023-08-21T09:36:55;101852.34;;;29.60;47.96
74790;BME280;63318;52.406;13.416;2023-08-21T09:39:23;101855.79;;;29.67;46.25
74790;BME280;63318;52.406;13.416;2023-08-21T09:41:57;101854.06;;;29.67;47.57
74790;BME280;63318;52.406;13.416;2023-08-21T09:44:26;101851.67;;;29.78;47.34
74790;BME280;63318;52.406;13.416;2023-08-21T09:46:55;101851.22;;;29.98;46.87
74790;BME280;63318;52.406;13.416;2023-08-21T09:49:23;101847.24;;;30.09;44.03
74790;BME280;63318;52.406;13.416;2023-08-21T09:51:52;101844.71;;;30.17;44.95
74790;BME280;63318;52.406;13.416;2023-08-21T09:54:22;101842.95;;;30.28;44.95
74790;BME280;63318;52.406;13.416;2023-08-21T09:56:51;101847.13;;;30.40;45.53
74790;BME280;63318;52.406;13.416;2023-08-21T09:59:20;101845.73;;;30.40;44.67
74790;BME280;63318;52.406;13.416;2023-08-21T10:01:51;101845.83;;;30.36;44.72
74790;BME280;63318;52.406;13.416;2023-08-21T10:04:20;101842.08;;;30.31;43.74
74790;BME280;63318;52.406;13.416;2023-08-21T10:06:52;101840.78;;;30.26;43.85
74790;BME280;63318;52.406;13.416;2023-08-21T10:09:23;101842.17;;;30.35;44.28
74790;BME280;63318;52.406;13.416;2023-08-21T10:11:53;101838.30;;;30.50;44.70
74790;BME280;63318;52.406;13.416;2023-08-21T10:14:23;101841.65;;;30.64;43.71
74790;BME280;63318;52.406;13.416;2023-08-21T10:16:52;101840.55;;;30.77;42.80
74790;BME280;63318;52.406;13.416;2023-08-21T10:19:21;101841.31;;;30.87;43.14
74790;BME280;63318;52.406;13.416;2023-08-21T10:21:50;101838.58;;;31.01;42.52
74790;BME280;63318;52.406;13.416;2023-08-21T10:24:34;101835.42;;;31.14;41.05
74790;BME280;63318;52.406;13.416;2023-08-21T10:27:04;101835.67;;;31.14;40.39
74790;BME280;63318;52.406;13.416;2023-08-21T10:29:34;101835.74;;;31.08;41.59
74790;BME280;63318;52.406;13.416;2023-08-21T10:32:03;101837.98;;;31.04;42.64
74790;BME280;63318;52.406;13.416;2023-08-21T10:34:36;101839.16;;;30.95;41.17
74790;BME280;63318;52.406;13.416;2023-08-21T10:37:07;101836.91;;;30.93;42.09
74790;BME280;63318;52.406;13.416;2023-08-21T10:39:35;101840.25;;;31.02;41.32
74790;BME280;63318;52.406;13.416;2023-08-21T10:42:07;101841.92;;;31.15;41.80
74790;BME280;63318;52.406;13.416;2023-08-21T10:44:48;101841.01;;;31.25;40.90
74790;BME280;63318;52.406;13.416;2023-08-21T10:47:18;101839.27;;;31.35;40.56
74790;BME280;63318;52.406;13.416;2023-08-21T10:49:50;101838.60;;;31.45;40.60
74790;BME280;63318;52.406;13.416;2023-08-21T10:52:22;101838.20;;;31.57;40.41
74790;BME280;63318;52.406;13.416;2023-08-21T10:54:53;101839.27;;;31.71;40.44
74790;BME280;63318;52.406;13.416;2023-08-21T10:57:23;101842.13;;;31.76;40.16
74790;BME280;63318;52.406;13.416;2023-08-21T10:59:53;101841.08;;;31.85;40.23
74790;BME280;63318;52.406;13.416;2023-08-21T11:02:22;101842.73;;;31.91;39.51
74790;BME280;63318;52.406;13.416;2023-08-21T11:04:51;101845.07;;;31.95;39.39
74790;BME280;63318;52.406;13.416;2023-08-21T11:07:20;101843.89;;;32.05;39.58
74790;BME280;63318;52.406;13.416;2023-08-21T11:09:49;101842.40;;;32.11;38.59
74790;BME280;63318;52.406;13.416;2023-08-21T11:12:18;101850.30;;;32.19;39.36
74790;BME280;63318;52.406;13.416;2023-08-21T11:14:47;101854.65;;;32.26;39.13
74790;BME280;63318;52.406;13.416;2023-08-21T11:17:16;101854.08;;;32.26;38.45
74790;BME280;63318;52.406;13.416;2023-08-21T11:19:44;101854.25;;;32.20;38.01
74790;BME280;63318;52.406;13.416;2023-08-21T11:22:13;101852.16;;;32.08;38.14
74790;BME280;63318;52.406;13.416;2023-08-21T11:24:43;101849.80;;;31.98;38.16
74790;BME280;63318;52.406;13.416;2023-08-21T11:27:13;101850.31;;;31.87;38.54
74790;BME280;63318;52.406;13.416;2023-08-21T11:29:43;101851.89;;;31.81;38.94
74790;BME280;63318;52.406;13.416;2023-08-21T11:32:14;101842.63;;;31.77;38.86
74790;BME280;63318;52.406;13.416;2023-08-21T11:34:46;101841.88;;;31.75;38.94
74790;BME280;63318;52.406;13.416;2023-08-21T11:37:17;101844.08;;;31.81;38.61
74790;BME280;63318;52.406;13.416;2023-08-21T11:39:50;101840.97;;;31.88;39.08
74790;BME280;63318;52.406;13.416;2023-08-21T11:42:20;101841.13;;;31.95;38.72
74790;BME280;63318;52.406;13.416;2023-08-21T11:44:51;101837.10;;;32.00;37.56
74790;BME280;63318;52.406;13.416;2023-08-21T11:47:21;101840.10;;;32.11;37.96
74790;BME280;63318;52.406;13.416;2023-08-21T11:49:50;101841.11;;;32.13;38.19
74790;BME280;63318;52.406;13.416;2023-08-21T11:52:21;101839.81;;;32.07;38.40
74790;BME280;63318;52.406;13.416;2023-08-21T11:54:51;101839.20;;;31.91;37.36
74790;BME280;63318;52.406;13.416;2023-08-21T11:57:20;101834.38;;;31.73;36.77
74790;BME280;63318;52.406;13.416;2023-08-21T11:59:52;101831.33;;;31.53;37.57
74790;BME280;63318;52.406;13.416;2023-08-21T12:02:23;101835.25;;;31.36;37.65
74790;BME280;63318;52.406;13.416;2023-08-21T12:04:53;101834.80;;;31.22;37.55
74790;BME280;63318;52.406;13.416;2023-08-21T12:07:22;101836.54;;;31.01;37.56
74790;BME280;63318;52.406;13.416;2023-08-21T12:09:50;101839.52;;;30.88;38.63
74790;BME280;63318;52.406;13.416;2023-08-21T12:12:18;101839.63;;;30.75;38.26
74790;BME280;63318;52.406;13.416;2023-08-21T12:14:47;101842.25;;;30.65;38.40
74790;BME280;63318;52.406;13.416;2023-08-21T12:17:15;101840.09;;;30.59;39.23
74790;BME280;63318;52.406;13.416;2023-08-21T12:19:44;101836.96;;;30.54;38.74
74790;BME280;63318;52.406;13.416;2023-08-21T12:22:12;101841.15;;;30.49;39.19
74790;BME280;63318;52.406;13.416;2023-08-21T12:24:40;101840.94;;;30.46;39.07
74790;BME280;63318;52.406;13.416;2023-08-21T12:27:09;101839.44;;;30.41;39.04
74790;BME280;63318;52.406;13.416;2023-08-21T12:29:37;101842.83;;;30.37;38.94
74790;BME280;63318;52.406;13.416;2023-08-21T12:32:06;101838.95;;;30.37;38.97
74790;BME280;63318;52.406;13.416;2023-08-21T12:34:34;101837.95;;;30.36;39.07
74790;BME280;63318;52.406;13.416;2023-08-21T12:37:03;101831.63;;;30.35;39.47
74790;BME280;63318;52.406;13.416;2023-08-21T12:39:31;101833.83;;;30.31;39.21
74790;BME280;63318;52.406;13.416;2023-08-21T12:41:59;101838.80;;;30.30;39.56
74790;BME280;63318;52.406;13.416;2023-08-21T12:44:28;101834.23;;;30.27;39.72
74790;BME280;63318;52.406;13.416;2023-08-21T12:46:56;101835.36;;;30.21;39.65
74790;BME280;63318;52.406;13.416;2023-08-21T12:49:24;101827.98;;;30.21;39.33